createdAt,value
2019-04-11T00:02:06.694Z,9.90
2019-04-11T00:04:40.125Z,9.90
2019-04-11T00:07:12.108Z,9.80
2019-04-11T00:09:44.960Z,9.80
2019-04-11T00:12:16.653Z,9.80
2019-04-11T00:14:48.412Z,9.80
2019-04-11T00:17:20.046Z,9.70
2019-04-11T00:19:51.636Z,9.70
2019-04-11T00:22:23.630Z,9.70
2019-04-11T00:24:55.522Z,9.60
2019-04-11T00:27:27.021Z,9.60
2019-04-11T00:29:59.522Z,9.60
2019-04-11T00:32:31.648Z,9.60
2019-04-11T00:35:03.667Z,9.60
2019-04-11T00:37:35.324Z,9.50
2019-04-11T00:40:06.909Z,9.50
2019-04-11T00:42:38.841Z,9.50
2019-04-11T00:45:11.544Z,9.50
2019-04-11T00:47:43.039Z,9.50
2019-04-11T00:50:14.853Z,9.50
2019-04-11T00:52:47.412Z,9.40
2019-04-11T00:55:19.629Z,9.40
2019-04-11T00:57:53.027Z,9.40
2019-04-11T01:00:24.667Z,9.40
2019-04-11T01:02:56.153Z,9.40
2019-04-11T01:05:27.685Z,9.30
2019-04-11T01:07:59.655Z,9.30
2019-04-11T01:10:34.108Z,9.20
2019-04-11T01:13:05.659Z,9.20
2019-04-11T01:15:38.821Z,9.20
2019-04-11T01:18:10.443Z,9.10
2019-04-11T01:20:42.221Z,9.10
2019-04-11T01:23:15.147Z,9.00
2019-04-11T01:25:46.894Z,9.00
2019-04-11T01:28:18.550Z,9.00
2019-04-11T01:31:01.635Z,8.90
2019-04-11T01:33:33.133Z,8.90
2019-04-11T01:36:04.877Z,8.90
2019-04-11T01:38:41.293Z,8.90
2019-04-11T01:41:12.815Z,8.80
2019-04-11T01:43:55.284Z,8.80
2019-04-11T01:46:20.145Z,8.80
2019-04-11T01:49:06.687Z,8.70
2019-04-11T01:51:38.029Z,8.70
2019-04-11T01:54:09.445Z,8.70
2019-04-11T01:56:41.213Z,8.60
2019-04-11T01:59:13.217Z,8.60
2019-04-11T02:02:07.472Z,8.60
2019-04-11T02:04:54.377Z,8.50
2019-04-11T02:07:26.982Z,8.50
2019-04-11T02:09:58.688Z,8.50
2019-04-11T02:12:31.089Z,8.50
2019-04-11T02:15:03.989Z,8.40
2019-04-11T02:17:35.460Z,8.40
2019-04-11T02:20:09.289Z,8.30
2019-04-11T02:23:19.947Z,8.30
2019-04-11T02:25:57.129Z,8.20
2019-04-11T02:28:28.782Z,8.20
2019-04-11T02:31:02.555Z,8.20
2019-04-11T02:33:34.831Z,8.20
2019-04-11T02:36:07.897Z,8.20
2019-04-11T02:38:41.322Z,8.20
2019-04-11T02:41:14.311Z,8.10
2019-04-11T02:43:46.795Z,8.10
2019-04-11T02:46:32.303Z,8.10
2019-04-11T02:48:54.540Z,8.10
2019-04-11T02:51:26.992Z,8.10
2019-04-11T02:53:59.501Z,8.10
2019-04-11T02:56:31.327Z,8.00
2019-04-11T02:59:05.243Z,7.90
2019-04-11T03:01:37.024Z,7.80
2019-04-11T03:04:08.681Z,7.80
2019-04-11T03:06:41.703Z,7.70
2019-04-11T03:09:14.967Z,7.60
2019-04-11T03:11:47.245Z,7.60
2019-04-11T03:14:20.696Z,7.50
2019-04-11T03:17:02.395Z,7.50
2019-04-11T03:19:42.178Z,7.50
2019-04-11T03:22:00.944Z,7.50
2019-04-11T03:24:33.883Z,7.50
2019-04-11T03:27:07.855Z,7.50
2019-04-11T03:29:40.627Z,7.40
2019-04-11T03:32:56.554Z,7.40
2019-04-11T03:37:43.114Z,7.40
2019-04-11T03:40:11.428Z,7.40
2019-04-11T03:42:38.206Z,7.40
2019-04-11T03:45:23.699Z,7.40
2019-04-11T03:47:50.522Z,7.40
2019-04-11T03:50:15.698Z,7.40
2019-04-11T03:52:42.927Z,7.40
2019-04-11T03:55:15.299Z,7.40
2019-04-11T03:57:49.069Z,7.30
2019-04-11T04:00:21.747Z,7.30
2019-04-11T04:02:55.268Z,7.30
2019-04-11T04:05:30.409Z,7.30
2019-04-11T04:08:03.954Z,7.30
2019-04-11T04:10:36.653Z,7.30
2019-04-11T04:13:13.969Z,7.30
2019-04-11T04:15:59.808Z,7.20
2019-04-11T04:18:36.240Z,7.20
2019-04-11T04:21:18.884Z,7.20
2019-04-11T04:23:51.953Z,7.20
2019-04-11T04:26:31.235Z,7.10
2019-04-11T04:29:04.471Z,7.10
2019-04-11T04:31:36.219Z,7.10
2019-04-11T04:34:09.107Z,7.10
2019-04-11T04:36:42.356Z,7.00
2019-04-11T04:39:14.912Z,7.00
2019-04-11T04:41:58.291Z,7.00
2019-04-11T04:44:24.186Z,7.00
2019-04-11T04:47:08.039Z,7.00
2019-04-11T04:49:29.970Z,7.00
2019-04-11T04:52:03.991Z,7.00
2019-04-11T04:54:36.515Z,7.00
2019-04-11T04:57:09.247Z,7.00
2019-04-11T04:59:42.556Z,7.00
2019-04-11T05:02:14.965Z,6.90
2019-04-11T05:04:47.839Z,6.90
2019-04-11T05:07:20.599Z,6.90
2019-04-11T05:09:52.035Z,6.90
2019-04-11T05:12:26.036Z,6.80
2019-04-11T05:14:59.081Z,6.80
2019-04-11T05:17:32.204Z,6.80
2019-04-11T05:20:05.079Z,6.80
2019-04-11T05:22:37.268Z,6.70
2019-04-11T05:25:08.976Z,6.70
2019-04-11T05:27:40.463Z,6.70
2019-04-11T05:30:11.976Z,6.70
2019-04-11T05:32:43.437Z,6.70
2019-04-11T05:35:16.523Z,6.60
2019-04-11T05:37:48.218Z,6.70
2019-04-11T05:40:19.774Z,6.70
2019-04-11T05:42:52.642Z,6.70
2019-04-11T05:45:26.043Z,6.70
2019-04-11T05:47:58.350Z,6.80
2019-04-11T05:50:32.019Z,6.70
2019-04-11T05:53:05.442Z,6.80
2019-04-11T05:55:43.135Z,6.70
2019-04-11T05:58:14.374Z,6.80
2019-04-11T06:00:57.683Z,6.80
2019-04-11T06:03:30.156Z,6.80
2019-04-11T06:06:12.803Z,6.90
2019-04-11T06:08:44.482Z,6.90
2019-04-11T06:11:34.975Z,7.00
2019-04-11T06:14:41.628Z,7.00
2019-04-11T06:17:15.866Z,7.10
2019-04-11T06:20:11.570Z,7.20
2019-04-11T06:22:49.795Z,7.20
2019-04-11T06:25:43.082Z,7.30
2019-04-11T06:28:18.019Z,7.40
2019-04-11T06:31:26.457Z,7.50
2019-04-11T06:34:05.042Z,7.60
2019-04-11T06:37:07.636Z,7.70
2019-04-11T06:39:59.676Z,7.80
2019-04-11T06:42:37.335Z,7.90
2019-04-11T06:45:36.356Z,8.00
2019-04-11T06:48:17.789Z,8.10
2019-04-11T06:51:15.623Z,8.20
2019-04-11T06:54:08.452Z,8.30
2019-04-11T06:56:43.651Z,8.40
2019-04-11T06:59:21.747Z,8.40
2019-04-11T07:01:53.509Z,8.50
2019-04-11T07:04:29.616Z,8.60
2019-04-11T07:07:02.329Z,8.70
2019-04-11T07:09:42.385Z,8.80
2019-04-11T07:12:39.103Z,8.80
2019-04-11T07:15:16.581Z,8.90
2019-04-11T07:18:07.505Z,9.10
2019-04-11T07:21:03.902Z,9.10
2019-04-11T07:23:53.391Z,9.30
2019-04-11T07:26:29.454Z,9.40
2019-04-11T07:29:27.044Z,9.50
2019-04-11T07:32:17.999Z,9.60
2019-04-11T07:35:27.654Z,9.80
2019-04-11T07:37:59.353Z,9.90
2019-04-11T07:40:39.481Z,10.10
2019-04-11T07:43:22.741Z,10.40
2019-04-11T07:46:13.270Z,10.60
2019-04-11T07:48:46.792Z,11.00
2019-04-11T07:51:27.586Z,11.40
2019-04-11T07:54:00.846Z,11.90
2019-04-11T07:56:41.923Z,12.40
2019-04-11T07:59:33.914Z,13.00
2019-04-11T08:02:24.352Z,13.60
2019-04-11T08:05:13.549Z,14.20
2019-04-11T08:08:07.844Z,14.90
2019-04-11T08:10:45.759Z,15.40
2019-04-11T08:13:22.647Z,15.90
2019-04-11T08:16:12.590Z,16.40
2019-04-11T08:19:22.511Z,16.90
2019-04-11T08:21:58.782Z,17.40
2019-04-11T08:24:36.588Z,18.00
2019-04-11T08:27:25.385Z,18.30
2019-04-11T08:29:58.856Z,18.60
2019-04-11T08:32:54.180Z,18.90
2019-04-11T08:35:51.388Z,19.20
2019-04-11T08:38:26.682Z,19.70
2019-04-11T08:41:20.389Z,20.10
2019-04-11T08:43:53.119Z,20.50
2019-04-11T08:46:33.059Z,20.80
2019-04-11T08:49:07.680Z,21.10
2019-04-11T08:51:39.325Z,21.40
2019-04-11T08:54:41.839Z,21.70
2019-04-11T08:57:13.767Z,21.90
2019-04-11T08:59:51.434Z,22.20
2019-04-11T09:02:40.998Z,22.20
2019-04-11T09:05:31.690Z,22.30
2019-04-11T09:08:20.438Z,22.40
2019-04-11T09:11:16.997Z,22.50
2019-04-11T09:14:24.216Z,22.60
2019-04-11T09:17:00.022Z,22.50
2019-04-11T09:20:05.873Z,22.30
2019-04-11T09:22:45.015Z,22.10
2019-04-11T09:25:34.952Z,21.80
2019-04-11T09:28:24.946Z,21.60
2019-04-11T09:31:19.168Z,21.40
2019-04-11T09:34:09.115Z,21.00
2019-04-11T09:37:05.574Z,20.70
2019-04-11T09:39:59.987Z,20.20
2019-04-11T09:42:53.508Z,19.90
2019-04-11T09:45:52.525Z,19.50
2019-04-11T09:48:53.880Z,19.20
2019-04-11T09:51:38.071Z,18.90
2019-04-11T09:54:38.083Z,18.60
2019-04-11T09:57:37.708Z,18.40
2019-04-11T10:00:28.939Z,18.00
2019-04-11T10:03:23.377Z,17.80
2019-04-11T10:06:17.530Z,17.50
2019-04-11T10:08:55.489Z,17.30
2019-04-11T10:11:54.742Z,17.20
2019-04-11T10:14:29.452Z,17.00
2019-04-11T10:17:26.012Z,16.90
2019-04-11T10:20:00.233Z,16.80
2019-04-11T10:22:41.005Z,16.70
2019-04-11T10:25:33.404Z,16.70
2019-04-11T10:28:33.205Z,16.70
2019-04-11T10:31:20.411Z,16.70
2019-04-11T10:34:26.477Z,16.80
2019-04-11T10:37:11.672Z,16.90
2019-04-11T10:40:03.931Z,17.00
2019-04-11T10:42:35.509Z,17.30
2019-04-11T10:45:29.163Z,17.40
2019-04-11T10:48:08.013Z,17.60
2019-04-11T10:51:10.949Z,17.70
2019-04-11T10:53:43.734Z,17.70
2019-04-11T10:56:47.521Z,17.90
2019-04-11T10:59:21.608Z,17.90
2019-04-11T11:02:31.667Z,18.00
2019-04-11T11:05:03.646Z,18.00
2019-04-11T11:07:35.196Z,18.00
2019-04-11T11:10:09.735Z,18.00
2019-04-11T11:13:01.320Z,17.90
2019-04-11T11:15:36.388Z,17.90
2019-04-11T11:18:59.713Z,17.90
2019-04-11T11:21:09.361Z,17.90
2019-04-11T11:23:58.829Z,18.00
2019-04-11T11:26:39.039Z,18.00
2019-04-11T11:29:42.950Z,18.00
2019-04-11T11:32:33.893Z,18.00
2019-04-11T11:35:34.915Z,18.00
2019-04-11T11:38:18.329Z,18.00
2019-04-11T11:41:24.811Z,17.90
2019-04-11T11:43:57.092Z,17.90
2019-04-11T11:46:42.630Z,17.80
2019-04-11T11:49:37.522Z,17.70
2019-04-11T11:52:15.636Z,17.70
2019-04-11T11:54:51.438Z,17.70
2019-04-11T11:57:28.817Z,17.70
2019-04-11T12:00:05.434Z,17.90
2019-04-11T12:02:44.880Z,18.30
2019-04-11T12:05:26.139Z,18.90
2019-04-11T12:08:17.759Z,19.60
2019-04-11T12:10:54.485Z,20.20
2019-04-11T12:13:45.487Z,20.70
2019-04-11T12:16:39.718Z,21.30
2019-04-11T12:19:24.781Z,21.80
2019-04-11T12:21:57.240Z,22.30
2019-04-11T12:24:48.208Z,22.50
2019-04-11T12:27:54.699Z,22.60
2019-04-11T12:30:44.123Z,22.40
2019-04-11T12:33:54.019Z,22.30
2019-04-11T12:36:30.529Z,22.30
2019-04-11T12:39:30.165Z,22.20
2019-04-11T12:42:15.801Z,22.20
2019-04-11T12:45:06.401Z,22.00
2019-04-11T12:47:42.648Z,21.90
2019-04-11T12:50:40.138Z,21.90
2019-04-11T12:53:21.449Z,21.80
2019-04-11T12:56:12.147Z,21.80
2019-04-11T12:59:02.748Z,22.10
2019-04-11T13:02:02.293Z,22.30
2019-04-11T13:04:46.030Z,22.50
2019-04-11T13:07:31.607Z,22.80
2019-04-11T13:10:29.870Z,23.00
2019-04-11T13:13:20.558Z,23.20
2019-04-11T13:15:57.805Z,23.30
2019-04-11T13:19:03.661Z,23.60
2019-04-11T13:22:03.930Z,23.90
2019-04-11T13:24:54.441Z,24.40
2019-04-11T13:27:33.743Z,24.80
2019-04-11T13:30:34.056Z,25.20
2019-04-11T13:33:17.867Z,25.80
2019-04-11T13:36:06.897Z,26.50
2019-04-11T13:38:42.965Z,27.10
2019-04-11T13:41:41.436Z,27.60
2019-04-11T13:44:20.980Z,28.10
2019-04-11T13:47:10.231Z,28.70
2019-04-11T13:50:16.199Z,29.10
2019-04-11T13:53:02.392Z,29.50
2019-04-11T13:55:36.602Z,30.00
2019-04-11T13:58:30.507Z,30.50
2019-04-11T14:01:08.125Z,30.90
2019-04-11T14:03:58.640Z,31.30
2019-04-11T14:06:37.946Z,31.50
2019-04-11T14:09:38.137Z,31.70
2019-04-11T14:12:13.702Z,31.80
2019-04-11T14:14:53.947Z,32.10
2019-04-11T14:17:57.024Z,32.30
2019-04-11T14:20:34.538Z,32.40
2019-04-11T14:23:33.723Z,32.50
2019-04-11T14:26:22.644Z,32.60
2019-04-11T14:29:23.340Z,32.60
2019-04-11T14:32:02.724Z,32.50
2019-04-11T14:35:02.242Z,32.50
2019-04-11T14:37:44.065Z,32.50
2019-04-11T14:41:01.217Z,32.50
2019-04-11T14:43:36.098Z,32.40
2019-04-11T14:46:26.856Z,32.10
2019-04-11T14:49:13.290Z,31.80
2019-04-11T14:52:03.772Z,31.10
2019-04-11T14:54:37.826Z,30.50
2019-04-11T14:57:17.075Z,29.80
2019-04-11T14:59:54.130Z,29.20
2019-04-11T15:02:32.475Z,28.70
2019-04-11T15:05:13.656Z,28.30
2019-04-11T15:07:43.776Z,27.90
2019-04-11T15:10:34.307Z,27.40
2019-04-11T15:13:06.488Z,26.90
2019-04-11T15:15:56.046Z,26.40
2019-04-11T15:18:27.883Z,25.90
2019-04-11T15:21:13.835Z,25.40
2019-04-11T15:23:50.742Z,24.90
2019-04-11T15:26:47.599Z,24.60
2019-04-11T15:29:32.301Z,24.40
2019-04-11T15:32:21.104Z,24.30
2019-04-11T15:34:58.419Z,24.30
2019-04-11T15:37:41.682Z,24.00
2019-04-11T15:40:34.121Z,23.80
2019-04-11T15:43:43.323Z,23.50
2019-04-11T15:46:21.890Z,23.20
2019-04-11T15:49:20.402Z,23.00
2019-04-11T15:52:28.201Z,22.90
2019-04-11T15:55:17.532Z,22.70
2019-04-11T15:57:53.737Z,22.40
2019-04-11T16:00:43.879Z,22.00
2019-04-11T16:03:19.148Z,21.50
2019-04-11T16:06:15.520Z,21.00
2019-04-11T16:08:49.860Z,20.50
2019-04-11T16:11:53.358Z,20.00
2019-04-11T16:14:38.446Z,19.60
2019-04-11T16:17:24.711Z,19.20
2019-04-11T16:20:18.267Z,18.80
2019-04-11T16:23:12.372Z,18.50
2019-04-11T16:25:47.207Z,18.10
2019-04-11T16:28:38.224Z,17.90
2019-04-11T16:31:12.526Z,17.60
2019-04-11T16:34:00.270Z,17.30
2019-04-11T16:36:37.616Z,17.10
2019-04-11T16:39:43.475Z,16.90
2019-04-11T16:42:18.194Z,16.70
2019-04-11T16:45:25.042Z,16.50
2019-04-11T16:48:04.775Z,16.30
2019-04-11T16:50:36.977Z,16.10
2019-04-11T16:53:11.480Z,15.90
2019-04-11T16:55:43.747Z,15.70
2019-04-11T16:58:19.291Z,15.50
2019-04-11T17:00:59.978Z,15.40
2019-04-11T17:03:32.349Z,15.20
2019-04-11T17:06:12.668Z,15.10
2019-04-11T17:08:56.121Z,14.90
2019-04-11T17:11:27.077Z,14.80
2019-04-11T17:13:59.910Z,14.60
2019-04-11T17:16:32.102Z,14.50
2019-04-11T17:19:19.741Z,14.30
2019-04-11T17:21:51.345Z,14.20
2019-04-11T17:24:23.668Z,14.10
2019-04-11T17:27:00.247Z,14.00
2019-04-11T17:29:32.496Z,13.90
2019-04-11T17:32:05.526Z,13.70
2019-04-11T17:34:40.706Z,13.60
2019-04-11T17:37:33.194Z,13.50
2019-04-11T17:40:07.732Z,13.40
2019-04-11T17:42:52.173Z,13.30
2019-04-11T17:45:23.945Z,13.20
2019-04-11T17:47:57.292Z,13.10
2019-04-11T17:50:29.759Z,13.00
2019-04-11T17:53:02.753Z,12.90
2019-04-11T17:55:35.160Z,12.80
2019-04-11T17:58:10.132Z,12.70
2019-04-11T18:00:47.397Z,12.60
2019-04-11T18:03:19.173Z,12.50
2019-04-11T18:05:54.325Z,12.30
2019-04-11T18:08:28.944Z,12.20
2019-04-11T18:11:03.580Z,12.20
2019-04-11T18:13:35.309Z,12.00
2019-04-11T18:18:58.783Z,11.80
2019-04-11T18:21:30.568Z,11.70
2019-04-11T18:24:05.797Z,11.60
2019-04-11T18:26:57.798Z,11.50
2019-04-11T18:29:29.966Z,11.50
2019-04-11T18:32:01.663Z,11.40
2019-04-11T18:34:34.034Z,11.30
2019-04-11T18:37:08.148Z,11.20
2019-04-11T18:39:41.230Z,11.10
2019-04-11T18:42:15.325Z,11.00
2019-04-11T18:44:46.798Z,10.90
2019-04-11T18:47:18.742Z,10.80
2019-04-11T18:49:53.289Z,10.80
2019-04-11T18:52:26.539Z,10.70
2019-04-11T18:54:59.238Z,10.70
2019-04-11T18:57:31.091Z,10.60
2019-04-11T19:00:07.126Z,10.60
2019-04-11T19:02:41.060Z,10.50
2019-04-11T19:05:13.418Z,10.40
2019-04-11T19:07:47.162Z,10.40
2019-04-11T19:10:18.883Z,10.40
2019-04-11T19:12:50.544Z,10.30
2019-04-11T19:15:33.938Z,10.30
2019-04-11T19:18:07.014Z,10.20
2019-04-11T19:20:38.846Z,10.20
2019-04-11T19:23:21.584Z,10.20
2019-04-11T19:25:57.452Z,10.10
2019-04-11T19:28:29.669Z,10.00
2019-04-11T19:31:01.595Z,10.00
2019-04-11T19:33:34.860Z,10.00
2019-04-11T19:36:12.292Z,9.90
2019-04-11T19:38:43.952Z,9.80
2019-04-11T19:41:17.972Z,9.80
2019-04-11T19:43:49.909Z,9.80
2019-04-11T19:46:21.628Z,9.70
2019-04-11T19:48:57.082Z,9.60
2019-04-11T19:51:29.568Z,9.60
2019-04-11T19:54:03.257Z,9.60
2019-04-11T19:56:40.113Z,9.60
2019-04-11T19:59:11.854Z,9.50
2019-04-11T20:01:43.955Z,9.50
2019-04-11T20:04:28.295Z,9.40
2019-04-11T20:07:00.987Z,9.40
2019-04-11T20:09:32.901Z,9.40
2019-04-11T20:12:06.206Z,9.30
2019-04-11T20:14:37.976Z,9.30
2019-04-11T20:17:10.090Z,9.30
2019-04-11T20:19:42.041Z,9.20
2019-04-11T20:22:14.086Z,9.20
2019-04-11T20:24:47.078Z,9.20
2019-04-11T20:27:22.508Z,9.10
2019-04-11T20:29:55.378Z,9.10
2019-04-11T20:32:33.153Z,9.10
2019-04-11T20:35:09.375Z,9.00
2019-04-11T20:37:45.377Z,9.00
2019-04-11T20:40:22.422Z,9.00
2019-04-11T20:43:05.812Z,8.90
2019-04-11T20:45:39.596Z,8.80
2019-04-11T20:48:14.968Z,8.80
2019-04-11T20:50:46.597Z,8.80
2019-04-11T20:53:18.503Z,8.80
2019-04-11T20:55:50.172Z,8.70
2019-04-11T20:58:27.530Z,8.70
2019-04-11T21:00:56.665Z,8.70
2019-04-11T21:03:44.838Z,8.70
2019-04-11T21:06:19.220Z,8.70
2019-04-11T21:08:50.719Z,8.60
2019-04-11T21:11:22.237Z,8.60
2019-04-11T21:13:53.625Z,8.60
2019-04-11T21:16:25.083Z,8.50
2019-04-11T21:18:56.665Z,8.50
2019-04-11T21:21:28.148Z,8.50
2019-04-11T21:24:00.386Z,8.50
2019-04-11T21:26:32.690Z,8.40
2019-04-11T21:29:04.223Z,8.40
2019-04-11T21:31:35.788Z,8.30
2019-04-11T21:34:07.161Z,8.30
2019-04-11T21:36:38.634Z,8.30
2019-04-11T21:39:10.197Z,8.30
2019-04-11T21:41:41.615Z,8.20
2019-04-11T21:44:13.105Z,8.20
2019-04-11T21:46:44.550Z,8.20
2019-04-11T21:49:15.980Z,8.20
2019-04-11T21:51:47.474Z,8.20
2019-04-11T21:54:18.913Z,8.10
2019-04-11T21:56:50.456Z,8.10
2019-04-11T21:59:21.883Z,8.10
2019-04-11T22:01:54.092Z,8.00
2019-04-11T22:04:27.444Z,8.00
2019-04-11T22:07:00.901Z,8.00
2019-04-11T22:09:35.494Z,8.00
2019-04-11T22:12:08.226Z,8.00
2019-04-11T22:14:41.921Z,7.90
2019-04-11T22:17:15.879Z,7.90
2019-04-11T22:19:46.788Z,7.90
2019-04-11T22:22:18.225Z,7.90
2019-04-11T22:24:49.675Z,7.80
2019-04-11T22:27:22.203Z,7.90
2019-04-11T22:29:55.205Z,7.80
2019-04-11T22:32:27.789Z,7.80
2019-04-11T22:34:59.903Z,7.80
2019-04-11T22:37:31.480Z,7.80
2019-04-11T22:40:02.934Z,7.70
2019-04-11T22:42:34.465Z,7.70
2019-04-11T22:45:08.566Z,7.70
2019-04-11T22:50:24.550Z,7.60
2019-04-11T22:53:07.070Z,7.60
2019-04-11T22:55:38.964Z,7.60
2019-04-11T22:58:13.990Z,7.60
2019-04-11T23:00:45.786Z,7.60
2019-04-11T23:03:33.672Z,7.60
2019-04-11T23:06:05.328Z,7.60
2019-04-11T23:08:36.844Z,7.50
2019-04-11T23:11:08.341Z,7.50
2019-04-11T23:13:40.145Z,7.50
2019-04-11T23:16:12.036Z,7.40
2019-04-11T23:18:45.101Z,7.40
2019-04-11T23:21:16.511Z,7.40
2019-04-11T23:23:47.993Z,7.30
2019-04-11T23:26:19.439Z,7.30
2019-04-11T23:28:50.910Z,7.30
2019-04-11T23:31:22.369Z,7.30
2019-04-11T23:33:54.916Z,7.30
2019-04-11T23:36:26.573Z,7.20
2019-04-11T23:38:58.124Z,7.20
2019-04-11T23:41:29.550Z,7.20
2019-04-11T23:44:01.117Z,7.20
2019-04-11T23:46:43.973Z,7.10
2019-04-11T23:49:15.632Z,7.10
2019-04-11T23:51:47.446Z,7.10
2019-04-11T23:54:23.323Z,7.10
2019-04-11T23:56:52.078Z,7.00
2019-04-11T23:59:23.670Z,7.00
